Flugplatz Antersberg (UL)

Hier findest Du alle Informationen zum Flugplatz Antersberg (UL).

Informationen für Piloten zum Flugplatz Antersberg

Hier findest Du alle relevanten Informationen, die Du als Pilot benötigst, um Antersberg anzufliegen.

Flugplatz: Antersberg ICAO-Code: UL Flugplatz
Frequenz Turm: 135,010 Mhz GAFOR Gebiet: -
Frequenz Ground: 135,010 Mhz Mogas: nein
Platzrunde: NO 0 ft Landegebühr: -
Platzhöhe: - Sunrise: 04:16 Uhr UTC
Pisten: 13/31 - 950 m x 20 m, GRAS Sunset: 18:06 Uhr UTC

Mitglieder, die in Antersberg fliegen

Flugwetter am Flugplatz Antersberg

Die METAR Information stammen aus EDDM (46.08 km entfernt).

METAR Code:
2024/04/10 16:20
EDDM 101620Z AUTO 34003KT 310V010 9999 FEW040 11/03 Q1030 NOSIG

Flugschulen am Flugplatz Antersberg

Am Flugplatz Antersberg gibt es leider keine Flugschule.

Benachbarte Flugplätze und Flugschulen

Es gibt 16 weitere Flugplätze in einem Umkreis von 50 km um den Flugplatz Antersberg.

Jetzt anmelden

Passwort vergessen

Umfrage Archiv

Wie häufig haltet Ihr die Halbkreisflugregel ein?

Eher häufig!
34.5 %
Immer!
32.4 %
Hin und wieder!
16.4 %
Nie!
9.2 %
Eher selten!
7.6 %
Stimmen: 238 | Diskussion
Anzeige: Roland Aircraft
Statistik Alle Mitglieder

Aktuell sind 23 Besucher online.

Anzeige: EasyVFR